createdAt,value
2022-09-24T00:01:42.222Z,8.10
2022-09-24T00:04:12.265Z,8.10
2022-09-24T00:06:41.170Z,8.00
2022-09-24T00:09:08.234Z,8.00
2022-09-24T00:11:35.580Z,7.80
2022-09-24T00:14:02.713Z,7.70
2022-09-24T00:16:31.593Z,7.70
2022-09-24T00:18:58.818Z,7.70
2022-09-24T00:21:29.567Z,7.80
2022-09-24T00:23:57.502Z,7.70
2022-09-24T00:26:42.875Z,7.70
2022-09-24T00:29:10.657Z,7.70
2022-09-24T00:31:37.572Z,7.70
2022-09-24T00:34:04.562Z,7.60
2022-09-24T00:36:31.835Z,7.70
2022-09-24T00:38:59.198Z,7.70
2022-09-24T00:41:28.061Z,7.60
2022-09-24T00:43:54.961Z,7.60
2022-09-24T00:46:26.801Z,7.60
2022-09-24T00:48:57.340Z,7.60
2022-09-24T00:51:25.297Z,7.50
2022-09-24T00:53:54.075Z,7.60
2022-09-24T00:56:22.165Z,7.50
2022-09-24T00:58:52.362Z,7.60
2022-09-24T01:01:23.062Z,7.60
2022-09-24T01:03:50.874Z,7.60
2022-09-24T01:06:17.493Z,7.50
2022-09-24T01:08:44.983Z,7.50
2022-09-24T01:11:36.478Z,7.50
2022-09-24T01:14:06.474Z,7.50
2022-09-24T01:16:56.438Z,7.50
2022-09-24T01:19:32.080Z,7.40
2022-09-24T01:22:02.721Z,7.40
2022-09-24T01:24:40.534Z,7.30
2022-09-24T01:27:25.956Z,7.30
2022-09-24T01:30:03.193Z,7.20
2022-09-24T01:32:38.166Z,7.20
2022-09-24T01:35:17.078Z,7.20
2022-09-24T01:37:45.921Z,7.20
2022-09-24T01:40:12.755Z,7.20
2022-09-24T01:42:42.418Z,7.20
2022-09-24T01:45:09.519Z,7.20
2022-09-24T01:47:40.155Z,7.20
2022-09-24T01:50:08.977Z,7.20
2022-09-24T01:52:40.603Z,7.20
2022-09-24T01:55:08.580Z,7.20
2022-09-24T01:57:39.120Z,7.10
2022-09-24T02:00:09.865Z,7.10
2022-09-24T02:02:45.504Z,7.10
2022-09-24T02:05:12.840Z,7.10
2022-09-24T02:07:42.771Z,7.10
2022-09-24T02:10:16.485Z,7.20
2022-09-24T02:12:44.373Z,7.30
2022-09-24T02:15:13.490Z,7.30
2022-09-24T02:17:42.950Z,7.30
2022-09-24T02:20:12.946Z,7.20
2022-09-24T02:22:40.075Z,7.20
2022-09-24T02:25:09.002Z,7.10
2022-09-24T02:27:35.816Z,7.10
2022-09-24T02:30:02.567Z,7.10
2022-09-24T02:32:31.304Z,7.10
2022-09-24T02:35:03.242Z,7.10
2022-09-24T02:37:34.165Z,7.00
2022-09-24T02:40:01.168Z,7.10
2022-09-24T02:42:27.901Z,7.10
2022-09-24T02:44:57.473Z,7.10
2022-09-24T02:47:24.210Z,7.20
2022-09-24T02:49:50.965Z,7.20
2022-09-24T02:52:18.787Z,7.20
2022-09-24T02:54:45.427Z,7.20
2022-09-24T02:57:12.023Z,7.30
2022-09-24T02:59:38.624Z,7.30
2022-09-24T03:02:05.809Z,7.30
2022-09-24T03:04:32.575Z,7.30
2022-09-24T03:06:59.410Z,7.30
2022-09-24T03:09:26.400Z,7.30
2022-09-24T03:11:53.030Z,7.20
2022-09-24T03:14:19.663Z,7.30
2022-09-24T03:16:46.335Z,7.30
2022-09-24T03:19:13.048Z,7.30
2022-09-24T03:21:39.690Z,7.30
2022-09-24T03:24:06.505Z,7.30
2022-09-24T03:26:33.238Z,7.20
2022-09-24T03:28:59.845Z,7.20
2022-09-24T03:31:26.646Z,7.20
2022-09-24T03:33:53.359Z,7.20
2022-09-24T03:36:24.530Z,7.20
2022-09-24T03:38:57.770Z,7.20
2022-09-24T03:41:27.732Z,7.20
2022-09-24T03:43:54.675Z,7.20
2022-09-24T03:46:22.075Z,7.20
2022-09-24T03:48:49.199Z,7.30
2022-09-24T03:51:18.831Z,7.30
2022-09-24T03:53:46.051Z,7.30
2022-09-24T03:56:13.000Z,7.30
2022-09-24T03:58:40.038Z,7.40
2022-09-24T04:01:07.229Z,7.40
2022-09-24T04:03:34.271Z,7.30
2022-09-24T04:06:00.895Z,7.40
2022-09-24T04:08:27.741Z,7.40
2022-09-24T04:10:55.491Z,7.40
2022-09-24T04:13:22.257Z,7.40
2022-09-24T04:15:50.494Z,7.40
2022-09-24T04:18:17.430Z,7.40
2022-09-24T04:20:44.194Z,7.40
2022-09-24T04:23:11.299Z,7.40
2022-09-24T04:25:38.204Z,7.40
2022-09-24T04:28:06.321Z,7.40
2022-09-24T04:30:34.059Z,7.30
2022-09-24T04:33:01.094Z,7.30
2022-09-24T04:35:30.002Z,7.30
2022-09-24T04:37:57.283Z,7.30
2022-09-24T04:40:24.005Z,7.30
2022-09-24T04:42:50.747Z,7.40
2022-09-24T04:45:19.354Z,7.40
2022-09-24T04:47:57.190Z,7.40
2022-09-24T04:50:25.034Z,7.30
2022-09-24T04:52:51.764Z,7.30
2022-09-24T04:55:20.765Z,7.30
2022-09-24T04:57:47.657Z,7.30
2022-09-24T05:00:15.522Z,7.40
2022-09-24T05:02:42.449Z,7.40
2022-09-24T05:05:09.386Z,7.40
2022-09-24T05:07:36.438Z,7.40
2022-09-24T05:10:03.539Z,7.40
2022-09-24T05:12:30.201Z,7.40
2022-09-24T05:14:56.830Z,7.40
2022-09-24T05:17:23.489Z,7.50
2022-09-24T05:19:50.236Z,7.50
2022-09-24T05:22:16.873Z,7.60
2022-09-24T05:24:43.474Z,7.60
2022-09-24T05:27:10.393Z,7.60
2022-09-24T05:29:37.249Z,7.60
2022-09-24T05:32:05.640Z,7.70
2022-09-24T05:34:32.972Z,7.70
2022-09-24T05:37:00.222Z,7.70
2022-09-24T05:39:32.841Z,7.70
2022-09-24T05:42:01.865Z,7.80
2022-09-24T05:44:28.544Z,7.80
2022-09-24T05:46:55.225Z,7.80
2022-09-24T05:49:21.913Z,7.80
2022-09-24T05:51:49.980Z,7.80
2022-09-24T05:54:17.286Z,7.80
2022-09-24T05:56:44.175Z,7.90
2022-09-24T05:59:11.003Z,7.90
2022-09-24T06:01:37.849Z,7.90
2022-09-24T06:04:08.567Z,8.00
2022-09-24T06:06:36.307Z,8.00
2022-09-24T06:09:03.379Z,8.00
2022-09-24T06:11:40.011Z,8.00
2022-09-24T06:14:06.997Z,8.00
2022-09-24T06:16:34.307Z,8.10
2022-09-24T06:19:01.591Z,8.20
2022-09-24T06:21:28.308Z,8.20
2022-09-24T06:23:54.974Z,8.30
2022-09-24T06:26:21.736Z,8.30
2022-09-24T06:28:48.364Z,8.40
2022-09-24T06:31:15.234Z,8.40
2022-09-24T06:33:42.540Z,8.60
2022-09-24T06:36:09.276Z,8.60
2022-09-24T06:38:36.673Z,8.70
2022-09-24T06:41:05.144Z,8.70
2022-09-24T06:43:32.544Z,8.80
2022-09-24T06:45:59.679Z,8.90
2022-09-24T06:48:27.042Z,9.00
2022-09-24T06:50:54.885Z,9.10
2022-09-24T06:53:21.559Z,9.20
2022-09-24T06:55:48.947Z,9.30
2022-09-24T06:58:17.131Z,9.40
2022-09-24T07:00:50.020Z,9.40
2022-09-24T07:03:16.783Z,9.50
2022-09-24T07:05:44.120Z,9.60
2022-09-24T07:08:11.309Z,9.70
2022-09-24T07:10:42.258Z,9.80
2022-09-24T07:13:08.938Z,9.80
2022-09-24T07:15:35.733Z,9.80
2022-09-24T07:18:02.431Z,9.90
2022-09-24T07:20:29.095Z,9.90
2022-09-24T07:22:56.238Z,9.90
2022-09-24T07:25:22.935Z,9.90
2022-09-24T07:27:49.697Z,9.90
2022-09-24T07:30:16.701Z,9.90
2022-09-24T07:32:43.831Z,9.90
2022-09-24T07:35:10.499Z,10.00
2022-09-24T07:37:37.527Z,10.10
2022-09-24T07:40:04.251Z,10.20
2022-09-24T07:42:30.969Z,10.30
2022-09-24T07:44:57.809Z,10.40
2022-09-24T07:47:24.681Z,10.50
2022-09-24T07:49:51.337Z,10.60
2022-09-24T07:52:18.584Z,10.70
2022-09-24T07:54:45.246Z,10.80
2022-09-24T07:57:13.635Z,10.90
2022-09-24T07:59:40.762Z,10.90
2022-09-24T08:02:14.205Z,11.00
2022-09-24T08:04:40.831Z,11.10
2022-09-24T08:07:07.467Z,11.20
2022-09-24T08:09:35.277Z,11.30
2022-09-24T08:12:02.125Z,11.40
2022-09-24T08:14:29.189Z,11.60
2022-09-24T08:16:55.832Z,11.80
2022-09-24T08:19:22.442Z,11.80
2022-09-24T08:21:49.162Z,11.90
2022-09-24T08:24:24.814Z,11.90
2022-09-24T08:26:51.424Z,12.00
2022-09-24T08:29:21.222Z,12.00
2022-09-24T08:31:50.852Z,12.20
2022-09-24T08:34:19.773Z,12.30
2022-09-24T08:36:46.388Z,12.40
2022-09-24T08:39:13.763Z,12.50
2022-09-24T08:41:55.367Z,12.60
2022-09-24T08:45:00.915Z,12.60
2022-09-24T08:47:48.278Z,12.70
2022-09-24T08:50:23.430Z,12.80
2022-09-24T08:53:14.461Z,12.80
2022-09-24T08:55:43.312Z,13.00
2022-09-24T08:58:26.448Z,13.10
2022-09-24T09:00:59.091Z,13.20
2022-09-24T09:03:48.355Z,13.20
2022-09-24T09:06:17.708Z,13.30
2022-09-24T09:09:07.738Z,13.40
2022-09-24T09:11:35.601Z,13.50
2022-09-24T09:14:10.749Z,13.60
2022-09-24T09:16:44.318Z,13.50
2022-09-24T09:19:13.300Z,13.50
2022-09-24T09:21:47.373Z,13.50
2022-09-24T09:24:18.630Z,13.50
2022-09-24T09:26:50.618Z,13.50
2022-09-24T09:29:17.565Z,13.50
2022-09-24T09:31:56.293Z,13.60
2022-09-24T09:34:25.960Z,13.70
2022-09-24T09:36:55.970Z,13.70
2022-09-24T09:39:41.632Z,13.80
2022-09-24T09:42:15.030Z,13.90
2022-09-24T09:44:42.880Z,14.00
2022-09-24T09:47:30.591Z,14.00
2022-09-24T09:49:58.354Z,14.00
2022-09-24T09:52:28.936Z,14.10
2022-09-24T09:54:55.951Z,14.10
2022-09-24T09:57:24.063Z,14.10
2022-09-24T09:59:55.008Z,14.10
2022-09-24T10:02:30.330Z,14.00
2022-09-24T10:05:06.483Z,13.90
2022-09-24T10:07:43.999Z,14.00
2022-09-24T10:10:18.972Z,14.10
2022-09-24T10:12:46.000Z,14.10
2022-09-24T10:15:17.165Z,14.30
2022-09-24T10:17:47.343Z,14.40
2022-09-24T10:20:13.981Z,14.50
2022-09-24T10:22:45.797Z,14.50
2022-09-24T10:25:26.382Z,14.50
2022-09-24T10:28:15.887Z,14.60
2022-09-24T10:30:57.271Z,14.80
2022-09-24T10:33:24.315Z,14.80
2022-09-24T10:35:51.380Z,15.00
2022-09-24T10:38:19.478Z,15.00
2022-09-24T10:40:46.847Z,15.10
2022-09-24T10:43:20.879Z,15.10
2022-09-24T10:46:07.882Z,15.20
2022-09-24T10:48:39.080Z,15.20
2022-09-24T10:51:08.676Z,15.20
2022-09-24T10:53:58.954Z,15.30
2022-09-24T10:56:36.236Z,15.40
2022-09-24T10:59:10.972Z,15.50
2022-09-24T11:02:16.390Z,15.70
2022-09-24T11:04:47.396Z,15.80
2022-09-24T11:07:30.503Z,16.00
2022-09-24T11:10:26.566Z,16.00
2022-09-24T11:13:07.329Z,16.10
2022-09-24T11:15:34.033Z,16.20
2022-09-24T11:18:10.111Z,16.20
2022-09-24T11:20:38.389Z,16.10
2022-09-24T11:23:11.047Z,16.10
2022-09-24T11:25:51.368Z,16.10
2022-09-24T11:28:32.796Z,16.00
2022-09-24T11:31:22.552Z,15.90
2022-09-24T11:34:08.457Z,15.70
2022-09-24T11:36:50.083Z,15.70
2022-09-24T11:39:20.060Z,15.60
2022-09-24T11:41:55.434Z,15.70
2022-09-24T11:44:28.428Z,15.60
2022-09-24T11:47:13.459Z,15.60
2022-09-24T11:49:58.878Z,15.50
2022-09-24T11:52:47.766Z,15.50
2022-09-24T11:55:20.990Z,15.40
2022-09-24T11:57:56.671Z,15.40
2022-09-24T12:00:28.389Z,15.50
2022-09-24T12:03:15.382Z,15.50
2022-09-24T12:05:46.907Z,15.60
2022-09-24T12:08:17.662Z,15.70
2022-09-24T12:10:52.676Z,15.70
2022-09-24T12:13:22.561Z,15.70
2022-09-24T12:15:56.632Z,15.80
2022-09-24T12:18:28.959Z,15.90
2022-09-24T12:21:01.663Z,15.90
2022-09-24T12:23:30.296Z,15.90
2022-09-24T12:26:03.049Z,15.90
2022-09-24T12:28:51.470Z,16.00
2022-09-24T12:32:12.047Z,16.10
2022-09-24T12:34:47.536Z,16.10
2022-09-24T12:37:16.908Z,16.10
2022-09-24T12:39:48.018Z,16.10
2022-09-24T12:42:15.524Z,16.00
2022-09-24T12:44:51.478Z,16.00
2022-09-24T12:47:23.982Z,16.00
2022-09-24T12:49:52.752Z,15.90
2022-09-24T12:52:25.067Z,15.80
2022-09-24T12:54:56.832Z,15.90
2022-09-24T12:57:26.313Z,16.00
2022-09-24T12:59:54.294Z,16.00
2022-09-24T13:02:23.885Z,16.00
2022-09-24T13:05:02.855Z,16.00
2022-09-24T13:07:36.768Z,16.10
2022-09-24T13:10:18.555Z,16.10
2022-09-24T13:12:45.417Z,16.20
2022-09-24T13:15:28.343Z,16.10
2022-09-24T13:18:07.780Z,16.10
2022-09-24T13:20:36.208Z,16.10
2022-09-24T13:23:23.279Z,16.00
2022-09-24T13:25:57.415Z,15.90
2022-09-24T13:28:37.898Z,15.80
2022-09-24T13:31:25.444Z,15.80
2022-09-24T13:34:12.779Z,15.80
2022-09-24T13:36:43.864Z,15.90
2022-09-24T13:39:19.000Z,16.00
2022-09-24T13:41:48.544Z,16.10
2022-09-24T13:44:18.320Z,16.20
2022-09-24T13:46:46.107Z,16.30
2022-09-24T13:49:17.737Z,16.30
2022-09-24T13:51:46.084Z,16.30
2022-09-24T13:54:23.293Z,16.40
2022-09-24T13:57:10.448Z,16.40
2022-09-24T13:59:37.585Z,16.50
2022-09-24T14:02:04.409Z,16.40
2022-09-24T14:04:31.266Z,16.50
2022-09-24T14:06:58.572Z,16.40
2022-09-24T14:09:28.785Z,16.30
2022-09-24T14:11:56.707Z,16.30
2022-09-24T14:14:24.741Z,16.20
2022-09-24T14:16:55.125Z,16.20
2022-09-24T14:19:23.370Z,16.30
2022-09-24T14:21:52.494Z,16.20
2022-09-24T14:24:19.079Z,16.20
2022-09-24T14:26:52.038Z,16.20
2022-09-24T14:29:29.658Z,16.20
2022-09-24T14:31:58.461Z,16.10
2022-09-24T14:34:35.783Z,16.00
2022-09-24T14:37:08.629Z,15.90
2022-09-24T14:39:37.784Z,15.90
2022-09-24T14:42:09.526Z,15.90
2022-09-24T14:44:38.559Z,16.00
2022-09-24T14:47:05.339Z,16.00
2022-09-24T14:49:43.034Z,15.80
2022-09-24T14:52:30.975Z,15.80
2022-09-24T14:55:17.632Z,15.70
2022-09-24T14:57:48.953Z,15.80
2022-09-24T15:00:26.789Z,15.80
2022-09-24T15:02:53.486Z,15.90
2022-09-24T15:05:23.302Z,15.90
2022-09-24T15:07:50.116Z,16.00
2022-09-24T15:10:22.158Z,15.90
2022-09-24T15:12:49.597Z,16.00
2022-09-24T15:15:20.835Z,16.00
2022-09-24T15:17:47.818Z,15.90
2022-09-24T15:20:14.678Z,16.00
2022-09-24T15:22:41.322Z,15.90
2022-09-24T15:25:08.126Z,15.90
2022-09-24T15:27:38.057Z,15.90
2022-09-24T15:30:07.157Z,15.90
2022-09-24T15:32:36.117Z,15.90
2022-09-24T15:35:08.315Z,15.90
2022-09-24T15:37:38.311Z,16.00
2022-09-24T15:40:07.244Z,16.20
2022-09-24T15:42:34.091Z,16.20
2022-09-24T15:45:00.726Z,16.20
2022-09-24T15:47:27.546Z,16.20
2022-09-24T15:49:54.287Z,16.10
2022-09-24T15:52:26.077Z,16.10
2022-09-24T15:55:00.184Z,16.10
2022-09-24T15:57:26.957Z,16.00
2022-09-24T15:59:53.979Z,16.00
2022-09-24T16:02:26.943Z,15.90
2022-09-24T16:04:53.592Z,15.90
2022-09-24T16:07:20.408Z,15.80
2022-09-24T16:09:47.460Z,15.70
2022-09-24T16:12:15.159Z,15.70
2022-09-24T16:14:41.826Z,15.70
2022-09-24T16:17:08.503Z,15.60
2022-09-24T16:19:35.154Z,15.60
2022-09-24T16:22:01.857Z,15.40
2022-09-24T16:24:31.811Z,15.30
2022-09-24T16:26:59.343Z,15.20
2022-09-24T16:29:26.276Z,15.10
2022-09-24T16:31:52.905Z,14.90
2022-09-24T16:34:19.856Z,14.90
2022-09-24T16:36:46.910Z,14.80
2022-09-24T16:39:15.770Z,14.70
2022-09-24T16:41:42.434Z,14.60
2022-09-24T16:44:10.772Z,14.50
2022-09-24T16:46:37.433Z,14.50
2022-09-24T16:49:04.121Z,14.40
2022-09-24T16:51:31.036Z,14.30
2022-09-24T16:53:57.765Z,14.20
2022-09-24T16:56:24.752Z,14.10
2022-09-24T16:58:51.538Z,14.00
2022-09-24T17:01:19.409Z,13.80
2022-09-24T17:03:53.198Z,13.70
2022-09-24T17:06:23.982Z,13.50
2022-09-24T17:09:09.374Z,13.40
2022-09-24T17:11:36.668Z,13.20
2022-09-24T17:14:03.521Z,13.10
2022-09-24T17:16:30.417Z,13.00
2022-09-24T17:18:57.405Z,12.90
2022-09-24T17:21:24.020Z,12.90
2022-09-24T17:23:50.939Z,12.80
2022-09-24T17:26:19.102Z,12.80
2022-09-24T17:28:46.423Z,12.70
2022-09-24T17:31:14.780Z,12.60
2022-09-24T17:33:44.782Z,12.60
2022-09-24T17:36:12.719Z,12.60
2022-09-24T17:38:39.440Z,12.50
2022-09-24T17:41:07.308Z,12.60
2022-09-24T17:43:34.458Z,12.50
2022-09-24T17:46:03.453Z,12.60
2022-09-24T17:48:38.164Z,12.50
2022-09-24T17:51:10.474Z,12.50
2022-09-24T17:53:37.527Z,12.40
2022-09-24T17:56:05.347Z,12.40
2022-09-24T17:58:32.844Z,12.40
2022-09-24T18:01:03.795Z,12.40
2022-09-24T18:03:30.397Z,12.40
2022-09-24T18:06:01.169Z,12.40
2022-09-24T18:08:27.852Z,12.50
2022-09-24T18:11:14.022Z,12.50
2022-09-24T18:13:40.906Z,12.50
2022-09-24T18:16:09.030Z,12.50
2022-09-24T18:18:36.075Z,12.50
2022-09-24T18:21:03.681Z,12.50
2022-09-24T18:23:30.779Z,12.50
2022-09-24T18:26:07.667Z,12.50
2022-09-24T18:28:34.316Z,12.50
2022-09-24T18:31:04.845Z,12.50
2022-09-24T18:33:32.630Z,12.50
2022-09-24T18:36:03.107Z,12.50
2022-09-24T18:38:31.826Z,12.50
2022-09-24T18:40:59.448Z,12.50
2022-09-24T18:43:26.492Z,12.60
2022-09-24T18:45:53.701Z,12.60
2022-09-24T18:48:20.339Z,12.60
2022-09-24T18:50:47.083Z,12.50
2022-09-24T18:53:13.701Z,12.50
2022-09-24T18:55:41.780Z,12.50
2022-09-24T18:58:10.975Z,12.50
2022-09-24T19:00:50.876Z,12.50
2022-09-24T19:03:18.833Z,12.40
2022-09-24T19:05:47.728Z,12.40
2022-09-24T19:08:15.132Z,12.30
2022-09-24T19:10:41.975Z,12.30
2022-09-24T19:13:08.606Z,12.20
2022-09-24T19:15:36.421Z,12.20
2022-09-24T19:18:03.680Z,12.10
2022-09-24T19:20:30.963Z,12.10
2022-09-24T19:23:00.708Z,12.00
2022-09-24T19:25:28.119Z,12.00
2022-09-24T19:27:55.247Z,11.90
2022-09-24T19:30:22.555Z,11.90
2022-09-24T19:32:49.183Z,11.80
2022-09-24T19:35:16.079Z,11.80
2022-09-24T19:37:43.345Z,11.70
2022-09-24T19:40:10.366Z,11.70
2022-09-24T19:42:37.384Z,11.70
2022-09-24T19:45:05.286Z,11.60
2022-09-24T19:47:32.966Z,11.60
2022-09-24T19:49:59.805Z,11.50
2022-09-24T19:52:26.561Z,11.50
2022-09-24T19:54:53.254Z,11.40
2022-09-24T19:57:20.194Z,11.30
2022-09-24T19:59:46.827Z,11.30
2022-09-24T20:02:14.158Z,11.30
2022-09-24T20:04:42.007Z,11.20
2022-09-24T20:07:08.668Z,11.20
2022-09-24T20:09:35.394Z,11.10
2022-09-24T20:12:02.173Z,11.10
2022-09-24T20:14:32.860Z,11.10
2022-09-24T20:17:00.799Z,11.00
2022-09-24T20:19:27.509Z,11.10
2022-09-24T20:21:57.478Z,11.10
2022-09-24T20:24:24.170Z,11.10
2022-09-24T20:27:09.731Z,11.10
2022-09-24T20:29:37.217Z,11.10
2022-09-24T20:32:04.174Z,11.10
2022-09-24T20:34:34.201Z,10.90
2022-09-24T20:37:01.826Z,10.90
2022-09-24T20:39:29.154Z,10.80
2022-09-24T20:41:56.480Z,10.80
2022-09-24T20:44:25.224Z,10.70
2022-09-24T20:46:52.145Z,10.70
2022-09-24T20:49:22.969Z,10.70
2022-09-24T20:51:57.002Z,10.70
2022-09-24T20:54:24.748Z,10.70
2022-09-24T20:56:51.849Z,10.70
2022-09-24T20:59:18.635Z,10.70
2022-09-24T21:01:45.802Z,10.70
2022-09-24T21:04:12.740Z,10.70
2022-09-24T21:06:39.442Z,10.70
2022-09-24T21:09:06.181Z,10.60
2022-09-24T21:11:33.368Z,10.50
2022-09-24T21:14:03.358Z,10.40
2022-09-24T21:16:31.338Z,10.40
2022-09-24T21:18:58.713Z,10.30
2022-09-24T21:21:26.986Z,10.30
2022-09-24T21:23:54.526Z,10.30
2022-09-24T21:26:25.504Z,10.30
2022-09-24T21:28:53.896Z,10.30
2022-09-24T21:31:21.616Z,10.20
2022-09-24T21:33:49.153Z,10.20
2022-09-24T21:36:19.455Z,10.30
2022-09-24T21:39:07.287Z,10.40
2022-09-24T21:41:35.319Z,10.30
2022-09-24T21:44:04.643Z,10.30
2022-09-24T21:46:32.220Z,10.40
2022-09-24T21:48:59.388Z,10.40
2022-09-24T21:51:29.387Z,10.40
2022-09-24T21:53:58.371Z,10.50
2022-09-24T21:56:25.093Z,10.40
2022-09-24T21:58:53.339Z,10.40
2022-09-24T22:01:20.237Z,10.40
2022-09-24T22:03:47.211Z,10.40
2022-09-24T22:06:14.471Z,10.40
2022-09-24T22:08:41.197Z,10.40
2022-09-24T22:11:08.908Z,10.40
2022-09-24T22:13:39.012Z,10.40
2022-09-24T22:16:07.667Z,10.50
2022-09-24T22:18:34.318Z,10.50
2022-09-24T22:21:05.778Z,10.50
2022-09-24T22:23:32.522Z,10.50
2022-09-24T22:25:59.273Z,10.50
2022-09-24T22:28:26.571Z,10.50
2022-09-24T22:30:55.239Z,10.50
2022-09-24T22:33:41.025Z,10.50
2022-09-24T22:36:07.950Z,10.50
2022-09-24T22:38:34.935Z,10.50
2022-09-24T22:41:05.434Z,10.50
2022-09-24T22:43:32.855Z,10.40
2022-09-24T22:46:00.109Z,10.50
2022-09-24T22:48:27.240Z,10.50
2022-09-24T22:50:54.165Z,10.40
2022-09-24T22:53:20.938Z,10.50
2022-09-24T22:55:52.341Z,10.50
2022-09-24T22:58:19.457Z,10.50
2022-09-24T23:00:46.091Z,10.40
2022-09-24T23:03:12.695Z,10.40
2022-09-24T23:05:39.401Z,10.40
2022-09-24T23:08:06.022Z,10.30
2022-09-24T23:10:32.655Z,10.30
2022-09-24T23:12:59.280Z,10.30
2022-09-24T23:15:26.017Z,10.20
2022-09-24T23:17:52.984Z,10.20
2022-09-24T23:20:19.628Z,10.20
2022-09-24T23:22:46.578Z,10.20
2022-09-24T23:25:13.195Z,10.20
2022-09-24T23:27:39.848Z,10.20
2022-09-24T23:30:06.796Z,10.20
2022-09-24T23:32:33.425Z,10.20
2022-09-24T23:35:00.157Z,10.10
2022-09-24T23:37:26.812Z,10.10
2022-09-24T23:39:53.499Z,10.00
2022-09-24T23:42:20.419Z,10.00
2022-09-24T23:44:48.688Z,10.00
2022-09-24T23:47:15.323Z,10.00
2022-09-24T23:49:41.963Z,10.00
2022-09-24T23:52:08.714Z,10.00
2022-09-24T23:54:40.290Z,10.00
2022-09-24T23:57:07.508Z,10.00
2022-09-24T23:59:34.684Z,10.00
